Time;durP1;ratioP1;P1;durP2;ratioP2;P2;SDS_P1;SDS_P2;PMS_P1;PMS_P2;Temp;Humidity;BMP_temperature;BMP_pressure;BME280_temperature;BME280_humidity;BME280_pressure;Samples;Min_cycle;Max_cycle;Signal;HPM_P1;HPM_P2
2023/05/07 00:02:10;;;;;;;3.30;3.00;;;;;;;18.27;55.50;98650.81;6973127;28;20308;-81
2023/05/07 00:05:32;;;;;;;3.20;2.80;;;;;;;17.68;57.53;98633.50;6973250;28;20600;-82
2023/05/07 00:08:53;;;;;;;3.40;3.10;;;;;;;18.30;56.34;98639.38;6973905;28;20210;-82
2023/05/07 00:12:15;;;;;;;3.33;3.03;;;;;;;18.28;55.79;98644.28;6972159;28;20218;-81
2023/05/07 00:15:37;;;;;;;4.23;2.83;;;;;;;18.62;55.10;98646.53;6974079;28;20604;-82
2023/05/07 00:18:59;;;;;;;6.47;3.43;;;;;;;18.23;55.72;98614.22;6973655;28;20765;-82
2023/05/07 00:22:21;;;;;;;4.37;3.97;;;;;;;18.27;56.34;98637.19;6973536;28;20364;-82
2023/05/07 00:25:42;;;;;;;4.77;3.57;;;;;;;18.56;55.21;98639.38;6973606;28;20662;-81
2023/05/07 00:29:04;;;;;;;4.70;4.30;;;;;;;18.74;54.69;98635.44;6973962;28;20332;-82
2023/05/07 00:32:27;;;;;;;2.90;2.70;;;;;;;18.56;54.89;98633.91;6936894;28;1068189;-81
2023/05/07 00:35:49;;;;;;;2.87;2.67;;;;;;;18.31;55.33;98625.50;6974732;28;20288;-82
2023/05/07 00:39:10;;;;;;;2.97;2.70;;;;;;;18.13;56.07;98614.09;6975044;28;20198;-82
2023/05/07 00:42:32;;;;;;;3.47;2.93;;;;;;;18.22;56.41;98632.47;6974386;28;20344;-82
2023/05/07 00:45:54;;;;;;;2.90;2.70;;;;;;;18.28;55.65;98622.44;6968019;28;20219;-81
2023/05/07 00:49:17;;;;;;;3.80;3.00;;;;;;;17.28;57.77;98589.34;6946926;28;20211;-82
2023/05/07 00:52:39;;;;;;;3.37;3.17;;;;;;;16.85;59.75;98586.59;6946135;28;20218;-82
2023/05/07 00:56:02;;;;;;;3.40;3.10;;;;;;;17.88;57.78;98611.91;6946730;28;20253;-81
2023/05/07 00:59:24;;;;;;;4.77;3.03;;;;;;;18.12;57.15;98612.47;6969016;28;20207;-81
2023/05/07 01:02:46;;;;;;;4.40;3.00;;;;;;;18.00;56.57;98609.06;6975082;28;20229;-81
2023/05/07 01:06:11;;;;;;;3.67;3.13;;;;;;;17.67;57.16;98584.69;6980745;28;20229;-82
2023/05/07 01:09:35;;;;;;;3.70;3.30;;;;;;;18.06;56.43;98605.31;6980543;28;20251;-81
2023/05/07 01:12:56;;;;;;;4.30;2.47;;;;;;;17.96;56.49;98618.81;6977508;28;20697;-82
2023/05/07 01:16:18;;;;;;;3.10;2.80;;;;;;;17.70;57.73;98614.19;6979620;28;20313;-81
2023/05/07 01:19:39;;;;;;;4.40;2.97;;;;;;;17.83;57.65;98609.16;6979639;28;20780;-81
2023/05/07 01:23:02;;;;;;;3.17;2.87;;;;;;;17.76;57.24;98607.69;6978474;28;20290;-81
2023/05/07 01:26:24;;;;;;;2.63;2.43;;;;;;;17.77;57.71;98617.53;6978997;28;20233;-81
2023/05/07 01:29:46;;;;;;;5.50;2.80;;;;;;;17.55;57.25;98570.38;6979349;28;20214;-81
2023/05/07 01:33:10;;;;;;;4.40;3.03;;;;;;;17.53;58.10;98597.06;6978432;28;20202;-81
2023/05/07 01:36:32;;;;;;;3.40;2.70;;;;;;;17.63;58.08;98613.56;6978857;28;20230;-81
2023/05/07 01:39:55;;;;;;;3.40;2.90;;;;;;;17.81;57.06;98611.28;6979226;28;20222;-81
2023/05/07 01:43:17;;;;;;;3.67;3.07;;;;;;;17.15;58.91;98608.81;6978829;28;20267;-81
2023/05/07 01:46:38;;;;;;;3.57;3.10;;;;;;;17.34;58.74;98593.78;6978811;28;20371;-81
2023/05/07 01:50:00;;;;;;;3.13;2.87;;;;;;;17.58;58.04;98602.59;6979232;28;20341;-81
2023/05/07 01:53:21;;;;;;;4.43;2.63;;;;;;;17.43;57.95;98583.31;6978905;28;20702;-81
2023/05/07 01:56:44;;;;;;;3.30;2.87;;;;;;;17.35;57.81;98567.38;6973727;28;20659;-81
2023/05/07 02:00:08;;;;;;;4.23;2.93;;;;;;;17.60;57.26;98608.59;6979978;28;20666;-81
2023/05/07 02:03:30;;;;;;;3.83;3.00;;;;;;;17.43;58.27;98608.69;6978703;28;20198;-81
2023/05/07 02:06:52;;;;;;;3.87;3.10;;;;;;;17.40;58.26;98606.44;6979368;28;20227;-81
2023/05/07 02:10:14;;;;;;;3.07;2.80;;;;;;;17.68;57.11;98603.53;6979642;28;20206;-81
2023/05/07 02:13:37;;;;;;;3.83;2.87;;;;;;;17.65;56.31;98584.97;6977687;28;20218;-81
2023/05/07 02:16:58;;;;;;;3.00;2.70;;;;;;;17.68;57.21;98606.25;6978684;28;20226;-81
2023/05/07 02:20:20;;;;;;;5.47;3.27;;;;;;;17.38;58.29;98610.50;6979244;28;20781;-81
2023/05/07 02:23:41;;;;;;;4.30;2.90;;;;;;;17.25;58.74;98602.66;6979099;28;20336;-81
2023/05/07 02:27:03;;;;;;;5.13;2.80;;;;;;;17.23;58.71;98605.63;6979503;28;20230;-81
2023/05/07 02:30:26;;;;;;;4.00;2.93;;;;;;;17.25;58.37;98613.56;6978793;28;20217;-81
2023/05/07 02:33:47;;;;;;;3.00;2.80;;;;;;;17.10;58.83;98607.94;6979009;28;20297;-81
2023/05/07 02:37:09;;;;;;;4.50;2.90;;;;;;;17.07;59.14;98611.13;6980357;28;20283;-82
2023/05/07 02:40:33;;;;;;;4.63;3.03;;;;;;;17.26;58.70;98618.78;6979624;28;20233;-81
2023/05/07 02:43:54;;;;;;;3.23;2.93;;;;;;;16.93;58.97;98612.56;6979739;28;20239;-81
2023/05/07 02:47:17;;;;;;;4.17;2.80;;;;;;;17.31;57.85;98605.22;6968874;28;20886;-81
2023/05/07 02:50:39;;;;;;;3.93;2.60;;;;;;;17.41;57.14;98604.56;6969396;28;20295;-81
2023/05/07 02:54:01;;;;;;;3.27;3.00;;;;;;;17.24;57.60;98598.28;6979609;28;20846;-81
2023/05/07 02:57:22;;;;;;;5.13;2.67;;;;;;;17.41;56.86;98593.66;6980184;28;20226;-81
2023/05/07 03:00:44;;;;;;;3.50;2.90;;;;;;;17.13;56.56;98615.56;6981131;28;20759;-81
2023/05/07 03:04:06;;;;;;;3.70;2.80;;;;;;;17.16;57.73;98605.00;6984120;28;20300;-81
2023/05/07 03:07:28;;;;;;;2.90;2.70;;;;;;;17.50;56.38;98614.75;6993512;28;20300;-81
2023/05/07 03:10:49;;;;;;;4.70;3.00;;;;;;;17.25;57.13;98610.84;6993146;28;20236;-81
2023/05/07 03:14:11;;;;;;;3.43;2.70;;;;;;;17.40;56.20;98611.09;6987233;28;20379;-82
2023/05/07 03:17:32;;;;;;;6.07;3.13;;;;;;;16.68;58.13;98599.41;6975294;28;20321;-82
2023/05/07 03:20:55;;;;;;;5.27;2.60;;;;;;;16.56;58.83;98606.00;6974978;28;20362;-81
2023/05/07 03:24:17;;;;;;;3.13;2.90;;;;;;;16.80;58.70;98599.31;6974388;28;20238;-81
2023/05/07 03:27:38;;;;;;;6.50;3.60;;;;;;;16.52;58.52;98524.00;6975228;28;20285;-82
2023/05/07 03:31:00;;;;;;;3.50;3.20;;;;;;;16.93;57.41;98583.44;6975741;28;20697;-82
2023/05/07 03:34:22;;;;;;;3.03;2.70;;;;;;;16.13;59.76;98589.44;6975285;28;20210;-81
2023/05/07 03:37:45;;;;;;;3.10;2.90;;;;;;;15.54;61.58;98593.53;6977350;28;20222;-81
2023/05/07 03:41:07;;;;;;;3.47;3.17;;;;;;;16.14;60.59;98591.09;6976976;28;20360;-81
2023/05/07 03:44:28;;;;;;;5.00;3.10;;;;;;;16.60;59.38;98588.09;6976532;28;20755;-82
2023/05/07 03:47:50;;;;;;;7.30;2.77;;;;;;;16.81;58.10;98593.59;6976811;28;20339;-81
2023/05/07 03:51:11;;;;;;;4.30;3.00;;;;;;;16.14;57.54;98515.78;6976849;28;20738;-81
2023/05/07 03:54:34;;;;;;;3.37;3.07;;;;;;;16.43;58.47;98609.88;6974491;28;20309;-81
2023/05/07 03:57:56;;;;;;;6.87;3.10;;;;;;;16.74;57.98;98603.84;6972020;28;20335;-81
2023/05/07 04:01:17;;;;;;;3.30;2.80;;;;;;;16.76;57.59;98609.03;6975934;28;20323;-81
2023/05/07 04:04:39;;;;;;;3.27;2.97;;;;;;;16.75;57.01;98599.22;6975187;28;20355;-81
2023/05/07 04:08:01;;;;;;;3.70;3.00;;;;;;;16.45;58.24;98602.28;6975886;28;20687;-81
2023/05/07 04:11:24;;;;;;;3.67;3.10;;;;;;;16.19;58.75;98604.78;6957688;28;20210;-82
2023/05/07 04:14:45;;;;;;;3.47;2.97;;;;;;;15.38;61.01;98585.28;6946462;28;20313;-81
2023/05/07 04:18:07;;;;;;;3.63;3.17;;;;;;;15.91;61.36;98611.09;6967189;28;20282;-81
2023/05/07 04:21:28;;;;;;;3.30;2.90;;;;;;;16.22;59.42;98583.34;6975658;28;20252;-81
2023/05/07 04:24:50;;;;;;;3.30;3.00;;;;;;;16.52;58.51;98618.47;6974984;28;20283;-81
2023/05/07 04:28:13;;;;;;;3.50;2.93;;;;;;;16.67;58.01;98605.91;6975106;28;20206;-82
2023/05/07 04:31:35;;;;;;;2.97;2.77;;;;;;;16.58;58.27;98617.47;6974812;28;20297;-81
2023/05/07 04:34:56;;;;;;;3.00;2.57;;;;;;;16.68;57.71;98623.09;6974953;28;20773;-81
2023/05/07 04:38:18;;;;;;;3.10;2.80;;;;;;;16.72;57.49;98618.78;6974456;28;20238;-81
2023/05/07 04:41:40;;;;;;;6.30;2.63;;;;;;;16.78;57.57;98620.50;6974964;28;20233;-81
2023/05/07 04:45:04;;;;;;;3.10;2.80;;;;;;;16.50;58.48;98609.69;6974199;28;20229;-81
2023/05/07 04:48:26;;;;;;;3.50;2.60;;;;;;;17.01;57.05;98620.31;6960589;28;20210;-81
2023/05/07 04:51:47;;;;;;;2.80;2.60;;;;;;;16.75;57.44;98626.47;6969180;28;20214;-81
2023/05/07 04:55:10;;;;;;;3.00;2.70;;;;;;;16.74;57.89;98630.25;6974401;28;20365;-81
2023/05/07 04:58:31;;;;;;;3.23;2.57;;;;;;;16.87;57.94;98629.91;6975029;28;20343;-81
2023/05/07 05:01:54;;;;;;;2.73;2.53;;;;;;;16.60;58.26;98618.88;6955176;28;20231;-81
2023/05/07 05:05:15;;;;;;;2.83;2.50;;;;;;;16.83;57.94;98643.22;6956821;28;20700;-81
2023/05/07 05:08:37;;;;;;;4.90;2.63;;;;;;;16.69;58.38;98643.78;7002149;28;20681;-81
2023/05/07 05:11:58;;;;;;;4.33;2.40;;;;;;;16.77;58.49;98644.19;6999876;28;20355;-82
2023/05/07 05:15:20;;;;;;;4.30;2.30;;;;;;;16.83;58.04;98632.31;7002038;28;20282;-81
2023/05/07 05:18:43;;;;;;;2.90;2.70;;;;;;;16.83;57.53;98635.03;7001959;28;20285;-81
2023/05/07 05:22:04;;;;;;;2.70;2.50;;;;;;;17.08;57.93;98656.38;7003078;28;20802;-81
2023/05/07 05:25:26;;;;;;;5.00;2.87;;;;;;;16.91;57.71;98637.31;7002541;28;20232;-81
2023/05/07 05:28:47;;;;;;;2.80;2.60;;;;;;;16.89;58.45;98642.22;7003047;28;20683;-88
2023/05/07 05:32:09;;;;;;;3.73;2.60;;;;;;;16.80;58.40;98626.53;6977745;28;20214;-80
2023/05/07 05:35:32;;;;;;;2.40;2.30;;;;;;;17.52;58.10;98649.94;6967208;28;20241;-79
2023/05/07 05:38:54;;;;;;;6.17;2.60;;;;;;;18.06;55.37;98671.63;6968185;28;20221;-83
2023/05/07 05:42:15;;;;;;;2.80;2.60;;;;;;;17.21;57.82;98636.97;6948146;28;20231;-83
2023/05/07 05:45:36;;;;;;;3.43;2.67;;;;;;;18.01;56.52;98652.47;6948675;28;20255;-81
2023/05/07 05:48:58;;;;;;;2.70;2.50;;;;;;;17.51;57.27;98638.19;6949167;28;20267;-83
2023/05/07 05:52:23;;;;;;;4.33;2.73;;;;;;;18.17;56.04;98656.16;6951276;28;20222;-83
2023/05/07 05:55:45;;;;;;;2.40;2.20;;;;;;;18.56;54.17;98654.94;6966241;28;20219;-83
2023/05/07 05:59:06;;;;;;;3.87;2.50;;;;;;;18.10;54.63;98574.50;6978906;28;20207;-83
2023/05/07 06:02:28;;;;;;;2.40;2.20;;;;;;;18.45;54.94;98645.84;6978940;28;20226;-82
2023/05/07 06:05:50;;;;;;;2.90;2.30;;;;;;;18.07;56.01;98653.31;6979932;28;20293;-83
2023/05/07 06:09:12;;;;;;;3.70;2.47;;;;;;;18.80;55.61;98648.88;6964310;28;20782;-83
2023/05/07 06:12:34;;;;;;;2.80;2.37;;;;;;;19.48;53.83;98657.00;6957705;28;20634;-83
2023/05/07 06:15:55;;;;;;;4.67;2.50;;;;;;;20.18;52.19;98659.22;6951978;28;20291;-82
2023/05/07 06:19:22;;;;;;;3.80;2.97;;;;;;;20.88;49.76;98662.06;6964753;28;20695;-82
2023/05/07 06:22:44;;;;;;;2.63;2.43;;;;;;;21.23;48.16;98649.97;6970479;28;20582;-83
2023/05/07 06:26:07;;;;;;;3.10;2.40;;;;;;;20.93;49.49;98651.94;6979477;28;20829;-84
2023/05/07 06:29:31;;;;;;;3.73;3.00;;;;;;;20.89;48.41;98587.81;6980534;28;20252;-82
2023/05/07 06:32:52;;;;;;;3.77;2.40;;;;;;;21.11;48.59;98664.28;6979625;28;20200;-83
2023/05/07 06:36:14;;;;;;;3.17;2.63;;;;;;;20.95;48.94;98657.97;6979306;28;20225;-82
2023/05/07 06:39:35;;;;;;;3.03;2.73;;;;;;;21.40;47.93;98645.00;6977725;28;20235;-82
2023/05/07 06:42:58;;;;;;;5.70;4.07;;;;;;;21.71;47.17;98663.06;6976976;28;20235;-81
2023/05/07 06:46:20;;;;;;;9.27;3.60;;;;;;;22.11;46.68;98660.13;6978245;28;20247;-82
2023/05/07 06:49:41;;;;;;;4.83;3.80;;;;;;;22.35;45.52;98652.00;6976541;28;20366;-83
2023/05/07 06:53:03;;;;;;;4.50;3.03;;;;;;;22.91;45.60;98659.63;6973334;28;20200;-83
2023/05/07 06:56:25;;;;;;;2.73;2.53;;;;;;;23.53;43.72;98654.09;6978163;28;20221;-83
2023/05/07 06:59:47;;;;;;;2.77;2.50;;;;;;;24.10;43.33;98658.66;6977884;28;20633;-83
2023/05/07 07:03:09;;;;;;;2.83;2.50;;;;;;;24.26;40.89;98618.75;6973745;28;20312;-83
2023/05/07 07:06:32;;;;;;;2.93;2.60;;;;;;;24.00;39.83;98654.09;6949881;28;20226;-83
2023/05/07 07:09:53;;;;;;;3.00;2.20;;;;;;;22.68;42.73;98632.88;6949729;28;20243;-83
2023/05/07 07:13:15;;;;;;;2.80;2.60;;;;;;;22.87;42.25;98644.81;6973102;28;20210;-83
2023/05/07 07:16:38;;;;;;;2.50;2.30;;;;;;;23.19;41.65;98622.28;6977561;28;20343;-83
2023/05/07 07:19:59;;;;;;;3.53;2.53;;;;;;;24.19;40.34;98641.16;6978984;28;20341;-83
2023/05/07 07:23:21;;;;;;;2.93;2.20;;;;;;;24.79;39.96;98640.28;6977112;28;20310;-83
2023/05/07 07:26:42;;;;;;;2.40;2.20;;;;;;;25.78;38.84;98634.06;6957355;28;20219;-82
2023/05/07 07:30:05;;;;;;;2.33;2.10;;;;;;;26.46;37.69;98640.34;6949462;28;20238;-84
2023/05/07 07:33:28;;;;;;;2.73;2.10;;;;;;;27.11;36.21;98629.63;6951243;28;20287;-82
2023/05/07 07:36:49;;;;;;;2.60;2.10;;;;;;;27.22;35.71;98625.50;6949509;28;20311;-82
2023/05/07 07:40:12;;;;;;;2.93;1.87;;;;;;;26.52;36.48;98618.91;6963208;28;20280;-82
2023/05/07 07:43:35;;;;;;;2.00;1.80;;;;;;;27.08;36.29;98622.78;6949186;28;20265;-82
2023/05/07 07:46:56;;;;;;;2.43;2.23;;;;;;;27.50;34.54;98607.56;6949459;28;20219;-82
2023/05/07 07:50:21;;;;;;;2.23;2.03;;;;;;;26.81;35.77;98605.50;6969157;28;20287;-82
2023/05/07 07:53:43;;;;;;;2.03;1.87;;;;;;;28.59;34.02;98635.94;6977093;28;20274;-82
2023/05/07 07:57:04;;;;;;;4.13;2.10;;;;;;;27.69;34.31;98556.31;6977469;28;20224;-82
2023/05/07 08:00:26;;;;;;;2.90;2.40;;;;;;;28.27;33.18;98611.41;6954387;28;20700;-82
2023/05/07 08:03:47;;;;;;;2.10;2.00;;;;;;;27.78;36.18;98640.31;6967263;28;20232;-82
2023/05/07 08:07:10;;;;;;;4.30;2.07;;;;;;;29.52;32.45;98633.06;6976923;28;20257;-82
2023/05/07 08:10:34;;;;;;;2.50;2.17;;;;;;;28.87;32.47;98631.69;6976767;28;20201;-82
2023/05/07 08:13:55;;;;;;;3.07;2.40;;;;;;;26.95;36.28;98634.75;6975752;28;20215;-82
2023/05/07 08:17:17;;;;;;;4.27;2.23;;;;;;;27.62;36.34;98628.00;6963375;28;20272;-82
2023/05/07 08:20:39;;;;;;;3.50;2.20;;;;;;;28.43;34.40;98623.69;6949324;28;20231;-82
2023/05/07 08:24:02;;;;;;;2.43;2.23;;;;;;;29.12;33.39;98628.91;6954979;28;20221;-82
2023/05/07 08:27:23;;;;;;;4.93;2.50;;;;;;;28.32;33.36;98616.81;6951231;28;20249;-82
2023/05/07 08:30:45;;;;;;;2.70;2.23;;;;;;;28.32;35.35;98633.44;6949598;28;20225;-82
2023/05/07 08:34:06;;;;;;;4.03;2.53;;;;;;;27.84;34.64;98619.63;6948800;28;20671;-82
2023/05/07 08:37:28;;;;;;;6.07;2.50;;;;;;;26.90;36.13;98612.72;6952508;28;20258;-82
2023/05/07 08:40:51;;;;;;;3.77;2.30;;;;;;;28.59;34.72;98624.84;6949507;28;20250;-83
2023/05/07 08:44:13;;;;;;;2.63;2.50;;;;;;;28.86;32.38;98602.31;6949276;28;20692;-83
2023/05/07 08:47:41;;;;;;;3.20;2.20;;;;;;;29.41;31.87;98609.56;6950209;28;20320;-82
2023/05/07 08:51:03;;;;;;;3.37;2.37;;;;;;;29.90;32.03;98633.09;6956022;28;20347;-82
2023/05/07 08:54:24;;;;;;;2.50;2.30;;;;;;;30.01;31.94;98632.38;6974342;28;20211;-82
2023/05/07 08:57:48;;;;;;;3.37;2.67;;;;;;;29.83;31.37;98625.28;6977979;28;20220;-82
2023/05/07 09:01:11;;;;;;;3.07;2.50;;;;;;;29.66;32.02;98630.09;6964665;28;20202;-82
2023/05/07 09:04:32;;;;;;;2.80;2.60;;;;;;;30.09;31.19;98631.56;6948158;28;20232;-82
2023/05/07 09:07:55;;;;;;;4.90;2.57;;;;;;;30.39;30.92;98626.78;6948940;28;20282;-82
2023/05/07 09:11:16;;;;;;;2.70;2.17;;;;;;;30.60;30.59;98631.19;6948581;28;20666;-82
2023/05/07 09:14:39;;;;;;;2.33;2.13;;;;;;;30.51;30.17;98633.25;6948553;28;20449;-82
2023/05/07 09:18:02;;;;;;;3.10;2.83;;;;;;;28.92;31.87;98606.53;6948722;28;20347;-82
2023/05/07 09:21:23;;;;;;;2.87;2.43;;;;;;;29.14;32.43;98614.72;6952824;28;20207;-82
2023/05/07 09:24:48;;;;;;;3.93;2.67;;;;;;;30.79;30.81;98600.94;6950429;28;20219;-82
2023/05/07 09:28:10;;;;;;;3.13;2.20;;;;;;;30.87;29.59;98555.50;6954993;28;20193;-82
2023/05/07 09:31:33;;;;;;;3.00;2.30;;;;;;;31.54;29.34;98614.44;6959206;28;20294;-82
2023/05/07 09:34:55;;;;;;;3.30;2.50;;;;;;;31.99;28.07;98601.25;6975625;28;20692;-82
2023/05/07 09:38:19;;;;;;;3.53;2.43;;;;;;;31.45;29.41;98585.84;6981826;28;20220;-82
2023/05/07 09:41:47;;;;;;;2.63;2.43;;;;;;;30.90;30.08;98593.78;6963266;28;20326;-83
2023/05/07 09:45:09;;;;;;;2.60;2.30;;;;;;;30.21;31.06;98606.63;6956841;28;20259;-82
2023/05/07 09:48:33;;;;;;;4.10;2.90;;;;;;;31.20;30.14;98603.66;6975436;28;20283;-85
2023/05/07 09:51:55;;;;;;;4.07;3.77;;;;;;;30.49;30.29;98593.78;6981485;28;20730;-86
2023/05/07 09:55:17;;;;;;;30.87;19.00;;;;;;;30.61;29.54;98590.28;6982113;28;20232;-84
2023/05/07 09:58:39;;;;;;;12.37;10.93;;;;;;;31.19;28.84;98604.81;6982148;28;20209;-82
2023/05/07 10:02:02;;;;;;;4.37;3.50;;;;;;;31.09;28.79;98588.53;6967020;28;20219;-83
2023/05/07 10:05:25;;;;;;;2.57;2.37;;;;;;;31.40;28.88;98594.44;6954443;28;20357;-84
2023/05/07 10:08:47;;;;;;;1.83;1.73;;;;;;;31.99;27.69;98597.63;6962008;28;20289;-84
2023/05/07 10:12:08;;;;;;;4.07;2.17;;;;;;;31.39;28.74;98573.31;6973050;28;20204;-84
2023/05/07 10:15:30;;;;;;;2.97;2.20;;;;;;;30.24;30.48;98603.16;6966829;28;20290;-84
2023/05/07 10:18:52;;;;;;;3.00;1.93;;;;;;;30.93;28.89;98593.13;6974810;28;20227;-83
2023/05/07 10:22:15;;;;;;;2.43;2.13;;;;;;;29.37;30.51;98557.78;6974735;28;20243;-81
2023/05/07 10:25:36;;;;;;;2.20;2.00;;;;;;;29.39;31.04;98575.75;6979479;28;20716;-82
2023/05/07 10:29:00;;;;;;;2.40;2.10;;;;;;;29.23;32.40;98571.06;6978775;28;20228;-82
2023/05/07 10:32:34;;;;;;;2.83;2.10;;;;;;;29.74;30.66;98574.47;6977373;28;20691;-82
2023/05/07 10:35:59;;;;;;;4.53;2.00;;;;;;;30.13;30.08;98570.53;6978061;28;20760;-83
2023/05/07 10:39:22;;;;;;;2.17;2.00;;;;;;;31.31;28.79;98576.19;6977957;28;20206;-82
2023/05/07 10:42:55;;;;;;;3.43;2.23;;;;;;;31.00;28.94;98562.72;6968430;28;20246;-82
2023/05/07 10:46:18;;;;;;;2.77;2.07;;;;;;;30.84;28.56;98577.66;6979520;28;20229;-83
2023/05/07 10:50:15;;;;;;;2.50;2.30;;;;;;;29.40;29.73;98577.38;6955397;28;20637;-82
2023/05/07 10:53:37;;;;;;;4.07;2.30;;;;;;;29.77;29.40;98567.44;6969333;28;20215;-82
2023/05/07 10:57:33;;;;;;;1.97;1.87;;;;;;;30.33;29.63;98569.72;6949461;28;20323;-82
2023/05/07 11:00:58;;;;;;;4.27;2.40;;;;;;;29.16;31.14;98568.81;6956274;28;20241;-83
2023/05/07 11:04:24;;;;;;;5.13;2.07;;;;;;;29.30;30.01;98558.28;6963537;28;20297;-82
2023/05/07 11:07:55;;;;;;;4.00;1.90;;;;;;;29.33;30.67;98554.88;6977954;28;20198;-82
2023/05/07 11:11:16;;;;;;;3.97;2.00;;;;;;;27.55;34.14;98566.69;6958413;28;20718;-82
2023/05/07 11:14:46;;;;;;;2.87;2.03;;;;;;;29.73;29.67;98550.59;6948037;28;20359;-82
2023/05/07 11:18:08;;;;;;;3.40;2.00;;;;;;;29.43;29.80;98550.91;6947778;28;20721;-82
2023/05/07 11:21:34;;;;;;;2.77;2.40;;;;;;;28.86;30.30;98557.91;6961505;28;20251;-82
2023/05/07 11:24:56;;;;;;;3.53;3.20;;;;;;;27.34;32.83;98565.63;6962415;28;20299;-82
2023/05/07 11:28:18;;;;;;;4.23;1.97;;;;;;;27.69;32.55;98556.31;6961278;28;20641;-81
2023/05/07 11:31:41;;;;;;;3.20;2.10;;;;;;;27.18;33.07;98533.16;6962767;28;20304;-83
2023/05/07 11:35:02;;;;;;;2.00;1.80;;;;;;;27.99;31.85;98538.81;6948735;28;20366;-82
2023/05/07 11:38:24;;;;;;;3.10;2.07;;;;;;;29.43;30.95;98562.81;6966193;28;20195;-82
2023/05/07 11:41:45;;;;;;;9.40;3.70;;;;;;;29.50;36.63;98553.97;6976636;28;20287;-83
2023/05/07 11:45:09;;;;;;;7.00;3.20;;;;;;;28.38;39.12;98554.53;6976963;28;20274;-83
2023/05/07 11:48:32;;;;;;;4.30;2.63;;;;;;;27.26;37.86;98554.53;6975955;28;20677;-83
2023/05/07 11:51:56;;;;;;;2.80;2.50;;;;;;;26.77;40.69;98478.06;6976520;28;20320;-82
2023/05/07 11:55:21;;;;;;;4.63;2.53;;;;;;;27.95;37.07;98548.09;6973580;28;20663;-82
2023/05/07 11:58:44;;;;;;;6.83;3.60;;;;;;;27.27;45.73;98553.38;6977121;28;20294;-82
2023/05/07 12:02:05;;;;;;;3.20;2.90;;;;;;;27.21;44.40;98558.25;6976992;28;20365;-82
2023/05/07 12:05:29;;;;;;;3.67;2.60;;;;;;;26.96;43.30;98533.19;6976439;28;20810;-81
2023/05/07 12:08:51;;;;;;;3.40;2.60;;;;;;;26.97;43.56;98509.91;6975644;28;20237;-82
2023/05/07 12:12:15;;;;;;;4.30;3.90;;;;;;;27.10;45.71;98556.88;6958240;28;20270;-82
2023/05/07 12:15:36;;;;;;;4.37;3.57;;;;;;;27.03;50.21;98569.50;6971682;28;20248;-82
2023/05/07 12:18:58;;;;;;;4.63;3.53;;;;;;;26.84;50.43;98549.53;6955774;28;20212;-84
2023/05/07 12:22:21;;;;;;;4.83;2.93;;;;;;;26.40;45.62;98566.94;6949310;28;20227;-83
2023/05/07 12:25:46;;;;;;;3.27;2.70;;;;;;;26.82;45.56;98541.56;6972253;28;20226;-83
2023/05/07 12:29:08;;;;;;;3.73;2.80;;;;;;;27.08;43.31;98559.09;6976157;28;20203;-83
2023/05/07 12:32:29;;;;;;;3.80;3.50;;;;;;;27.52;48.48;98555.44;6976525;28;20202;-83
2023/05/07 12:35:51;;;;;;;4.10;3.53;;;;;;;27.26;49.58;98516.56;6977588;28;20231;-83
2023/05/07 12:39:14;;;;;;;3.80;3.50;;;;;;;26.87;50.83;98569.09;6969029;28;20260;-83
2023/05/07 12:42:37;;;;;;;4.33;3.50;;;;;;;26.37;51.17;98577.81;6959129;28;20217;-82
2023/05/07 12:46:01;;;;;;;3.90;3.60;;;;;;;25.74;52.69;98585.25;6974884;28;20260;-84
2023/05/07 12:49:24;;;;;;;5.97;3.40;;;;;;;24.86;51.82;98593.84;6949699;28;20270;-83
2023/05/07 12:52:48;;;;;;;7.10;4.17;;;;;;;24.80;52.73;98584.00;6951636;28;20273;-83
2023/05/07 12:56:11;;;;;;;11.50;4.90;;;;;;;24.05;55.77;98611.88;6972742;28;20227;-83
2023/05/07 12:59:34;;;;;;;3.27;2.37;;;;;;;22.69;49.16;98608.94;6981358;28;20302;-83
2023/05/07 13:02:56;;;;;;;3.93;2.70;;;;;;;22.00;51.35;98609.13;6983218;28;20230;-83
2023/05/07 13:06:17;;;;;;;4.33;3.30;;;;;;;22.38;53.35;98627.56;6983556;28;20647;-83
2023/05/07 13:09:39;;;;;;;5.43;2.93;;;;;;;22.67;50.92;98569.94;6956803;28;20289;-83
2023/05/07 13:13:02;;;;;;;3.93;2.70;;;;;;;23.69;48.49;98635.47;6955163;28;20217;-83
2023/05/07 13:16:23;;;;;;;3.47;2.60;;;;;;;23.77;47.89;98638.38;6966754;28;20813;-83
2023/05/07 13:19:45;;;;;;;3.67;3.20;;;;;;;23.27;52.50;98624.38;6982591;28;20674;-82
2023/05/07 13:23:06;;;;;;;3.40;2.90;;;;;;;23.15;51.75;98633.00;6982561;28;20373;-82
2023/05/07 13:26:28;;;;;;;3.47;3.17;;;;;;;22.66;53.71;98667.25;6969806;28;20314;-82
2023/05/07 13:29:50;;;;;;;3.67;3.33;;;;;;;21.87;56.56;98666.56;6971919;28;20297;-83
2023/05/07 13:33:12;;;;;;;4.13;3.17;;;;;;;21.92;56.40;98647.31;6971725;28;20205;-83
2023/05/07 13:36:36;;;;;;;3.27;2.80;;;;;;;21.87;55.80;98650.91;6955951;28;20227;-82
2023/05/07 13:39:58;;;;;;;4.43;2.53;;;;;;;21.79;51.80;98631.47;6977507;28;20215;-83
2023/05/07 13:43:20;;;;;;;4.60;1.40;;;;;;;21.76;47.53;98579.88;6978466;28;20381;-85
2023/05/07 13:46:42;;;;;;;2.30;2.03;;;;;;;21.83;48.31;98602.34;6963751;28;20360;-81
2023/05/07 13:50:05;;;;;;;2.53;1.70;;;;;;;22.80;48.79;98603.09;6955085;28;20698;-85
2023/05/07 13:53:26;;;;;;;1.97;1.80;;;;;;;22.63;48.23;98599.94;6953905;28;20293;-82
2023/05/07 13:56:48;;;;;;;2.70;1.90;;;;;;;22.45;50.28;98597.03;6954075;28;20241;-81
2023/05/07 14:00:11;;;;;;;2.00;1.90;;;;;;;22.39;49.56;98607.22;6955425;28;20220;-81
2023/05/07 14:03:34;;;;;;;2.50;2.03;;;;;;;21.91;53.54;98590.78;6971176;28;20236;-83
2023/05/07 14:06:56;;;;;;;2.43;1.70;;;;;;;22.07;51.66;98617.06;6973852;28;20220;-84
2023/05/07 14:10:18;;;;;;;4.07;1.70;;;;;;;21.74;51.91;98613.09;6970915;28;20339;-84
2023/05/07 14:13:39;;;;;;;1.83;1.70;;;;;;;21.53;51.12;98591.50;6963699;28;20359;-84
2023/05/07 14:17:01;;;;;;;2.43;1.50;;;;;;;21.75;50.64;98602.94;6973370;28;20220;-84
2023/05/07 14:20:24;;;;;;;1.70;1.60;;;;;;;21.81;51.30;98697.88;6979710;28;20226;-83
2023/05/07 14:23:45;;;;;;;2.67;1.80;;;;;;;20.12;56.14;98594.63;6976722;28;20250;-85
2023/05/07 14:27:07;;;;;;;1.80;1.70;;;;;;;21.05;52.72;98671.66;6967347;28;20256;-83
2023/05/07 14:30:28;;;;;;;2.30;1.60;;;;;;;21.37;52.13;98685.91;6952572;28;20297;-84
2023/05/07 14:33:50;;;;;;;3.13;1.80;;;;;;;21.30;53.94;98702.63;6950407;28;20641;-86
2023/05/07 14:37:13;;;;;;;3.17;1.90;;;;;;;21.18;54.21;98707.56;6963258;28;20227;-87
2023/05/07 14:40:35;;;;;;;2.17;1.90;;;;;;;21.06;54.17;98688.94;6978978;28;20212;-84
2023/05/07 14:43:58;;;;;;;4.57;2.07;;;;;;;21.09;54.80;98716.63;6980071;28;20742;-85
2023/05/07 14:47:20;;;;;;;3.90;2.30;;;;;;;21.19;53.54;98683.72;6979109;28;20227;-84
2023/05/07 14:50:41;;;;;;;2.43;2.07;;;;;;;21.79;53.13;98703.66;6979131;28;20367;-84
2023/05/07 14:54:04;;;;;;;2.40;2.20;;;;;;;21.61;54.29;98708.88;6951417;28;20259;-85
2023/05/07 14:57:26;;;;;;;2.50;2.30;;;;;;;21.09;55.81;98716.63;6970844;28;20227;-88
2023/05/07 15:00:48;;;;;;;3.17;2.87;;;;;;;20.72;57.13;98706.97;6977517;28;20295;-85
2023/05/07 15:04:10;;;;;;;1.77;1.67;;;;;;;21.21;55.20;98700.72;6978920;28;20434;-86
2023/05/07 15:07:32;;;;;;;2.50;2.30;;;;;;;21.41;55.30;98698.78;6979345;28;20291;-83
2023/05/07 15:10:55;;;;;;;2.00;1.90;;;;;;;21.42;54.11;98689.44;6970951;28;20232;-84
2023/05/07 15:14:17;;;;;;;3.70;2.00;;;;;;;20.69;57.66;98702.88;6978352;28;20209;-84
2023/05/07 15:17:38;;;;;;;3.13;1.80;;;;;;;;;;6961450;28;20292;-84
2023/05/07 15:21:00;;;;;;;2.33;2.17;;;;;;;21.33;55.76;98691.13;6978406;28;20203;-88
2023/05/07 15:24:21;;;;;;;2.53;1.97;;;;;;;21.74;55.24;98680.88;6965459;28;20227;-84
2023/05/07 15:27:44;;;;;;;2.13;2.03;;;;;;;21.57;55.82;98617.25;6964281;28;20261;-84
2023/05/07 15:31:06;;;;;;;3.80;2.50;;;;;;;22.20;56.82;98707.84;6955083;28;20215;-83
2023/05/07 15:34:28;;;;;;;3.40;2.70;;;;;;;21.98;57.58;98699.19;6956395;28;20412;-83
2023/05/07 15:37:50;;;;;;;2.93;2.50;;;;;;;22.06;56.90;98703.28;6979224;28;20695;-84
2023/05/07 15:41:11;;;;;;;3.93;2.70;;;;;;;22.19;57.39;98711.72;6979008;28;20210;-85
2023/05/07 15:44:35;;;;;;;5.23;2.97;;;;;;;21.79;58.32;98709.16;6974839;28;20752;-84
2023/05/07 15:47:56;;;;;;;4.10;2.40;;;;;;;21.43;59.84;98710.28;6969078;28;20198;-84
2023/05/07 15:51:18;;;;;;;3.17;2.63;;;;;;;21.72;58.53;98713.28;6967466;28;20268;-83
2023/05/07 15:54:39;;;;;;;8.07;2.73;;;;;;;22.05;57.65;98726.34;6958067;28;20753;-83